sensor_id;sensor_type;location;lat;lon;timestamp;P1;durP1;ratioP1;P2;durP2;ratioP2
76459;SDS011;65299;46.084;18.762;2023-12-04T00:01:30;9.53;;;4.73;;
76459;SDS011;65299;46.084;18.762;2023-12-04T00:04:30;14.90;;;4.78;;
76459;SDS011;65299;46.084;18.762;2023-12-04T00:07:31;11.43;;;4.73;;
76459;SDS011;65299;46.084;18.762;2023-12-04T00:10:31;13.20;;;4.73;;
76459;SDS011;65299;46.084;18.762;2023-12-04T00:13:31;13.63;;;4.83;;
76459;SDS011;65299;46.084;18.762;2023-12-04T00:16:35;11.98;;;4.63;;
76459;SDS011;65299;46.084;18.762;2023-12-04T00:19:35;13.63;;;5.03;;
76459;SDS011;65299;46.084;18.762;2023-12-04T00:22:36;9.90;;;4.20;;
76459;SDS011;65299;46.084;18.762;2023-12-04T00:25:37;10.70;;;4.25;;
76459;SDS011;65299;46.084;18.762;2023-12-04T00:28:38;14.53;;;5.00;;
76459;SDS011;65299;46.084;18.762;2023-12-04T00:31:38;10.07;;;4.57;;
76459;SDS011;65299;46.084;18.762;2023-12-04T00:34:39;9.50;;;4.25;;
76459;SDS011;65299;46.084;18.762;2023-12-04T00:37:39;12.47;;;4.50;;
76459;SDS011;65299;46.084;18.762;2023-12-04T00:40:40;9.13;;;3.60;;
76459;SDS011;65299;46.084;18.762;2023-12-04T00:43:40;10.30;;;4.23;;
76459;SDS011;65299;46.084;18.762;2023-12-04T00:46:40;11.43;;;4.93;;
76459;SDS011;65299;46.084;18.762;2023-12-04T00:49:41;13.13;;;5.13;;
76459;SDS011;65299;46.084;18.762;2023-12-04T00:52:41;9.77;;;4.70;;
76459;SDS011;65299;46.084;18.762;2023-12-04T00:55:41;10.13;;;4.33;;
76459;SDS011;65299;46.084;18.762;2023-12-04T00:58:42;10.77;;;4.43;;
76459;SDS011;65299;46.084;18.762;2023-12-04T01:01:42;11.82;;;4.97;;
76459;SDS011;65299;46.084;18.762;2023-12-04T01:04:43;9.70;;;4.07;;
76459;SDS011;65299;46.084;18.762;2023-12-04T01:07:43;11.30;;;5.00;;
76459;SDS011;65299;46.084;18.762;2023-12-04T01:10:44;11.48;;;4.43;;
76459;SDS011;65299;46.084;18.762;2023-12-04T01:13:44;9.70;;;4.77;;
76459;SDS011;65299;46.084;18.762;2023-12-04T01:16:45;11.60;;;4.57;;
76459;SDS011;65299;46.084;18.762;2023-12-04T01:19:45;13.85;;;5.80;;
76459;SDS011;65299;46.084;18.762;2023-12-04T01:22:46;13.73;;;5.60;;
76459;SDS011;65299;46.084;18.762;2023-12-04T01:25:46;10.77;;;4.97;;
76459;SDS011;65299;46.084;18.762;2023-12-04T01:28:47;11.17;;;4.93;;
76459;SDS011;65299;46.084;18.762;2023-12-04T01:31:49;12.70;;;4.55;;
76459;SDS011;65299;46.084;18.762;2023-12-04T01:34:49;12.23;;;4.70;;
76459;SDS011;65299;46.084;18.762;2023-12-04T01:37:49;10.93;;;4.85;;
76459;SDS011;65299;46.084;18.762;2023-12-04T01:40:50;11.67;;;4.70;;
76459;SDS011;65299;46.084;18.762;2023-12-04T01:43:50;10.00;;;4.20;;
76459;SDS011;65299;46.084;18.762;2023-12-04T01:46:51;12.05;;;5.57;;
76459;SDS011;65299;46.084;18.762;2023-12-04T01:49:51;15.10;;;5.20;;
76459;SDS011;65299;46.084;18.762;2023-12-04T01:52:52;10.10;;;4.00;;
76459;SDS011;65299;46.084;18.762;2023-12-04T01:55:53;11.40;;;4.03;;
76459;SDS011;65299;46.084;18.762;2023-12-04T01:58:54;9.70;;;4.28;;
76459;SDS011;65299;46.084;18.762;2023-12-04T02:01:54;12.13;;;4.43;;
76459;SDS011;65299;46.084;18.762;2023-12-04T02:04:55;10.30;;;5.03;;
76459;SDS011;65299;46.084;18.762;2023-12-04T02:07:57;11.33;;;4.93;;
76459;SDS011;65299;46.084;18.762;2023-12-04T02:10:59;10.02;;;4.10;;
76459;SDS011;65299;46.084;18.762;2023-12-04T02:13:59;12.18;;;4.35;;
76459;SDS011;65299;46.084;18.762;2023-12-04T02:17:00;13.17;;;5.27;;
76459;SDS011;65299;46.084;18.762;2023-12-04T02:20:03;9.75;;;3.95;;
76459;SDS011;65299;46.084;18.762;2023-12-04T02:23:05;10.43;;;4.57;;
76459;SDS011;65299;46.084;18.762;2023-12-04T02:26:09;9.77;;;4.30;;
76459;SDS011;65299;46.084;18.762;2023-12-04T02:29:14;11.38;;;4.65;;
76459;SDS011;65299;46.084;18.762;2023-12-04T02:32:20;9.47;;;4.37;;
76459;SDS011;65299;46.084;18.762;2023-12-04T02:35:24;9.77;;;4.20;;
76459;SDS011;65299;46.084;18.762;2023-12-04T02:38:29;13.55;;;4.55;;
76459;SDS011;65299;46.084;18.762;2023-12-04T02:41:30;11.03;;;4.77;;
76459;SDS011;65299;46.084;18.762;2023-12-04T02:44:30;10.75;;;4.95;;
76459;SDS011;65299;46.084;18.762;2023-12-04T02:47:30;12.13;;;5.00;;
76459;SDS011;65299;46.084;18.762;2023-12-04T02:50:31;10.80;;;3.80;;
76459;SDS011;65299;46.084;18.762;2023-12-04T02:53:31;12.27;;;4.77;;
76459;SDS011;65299;46.084;18.762;2023-12-04T02:56:32;12.88;;;5.55;;
76459;SDS011;65299;46.084;18.762;2023-12-04T02:59:32;10.87;;;4.67;;
76459;SDS011;65299;46.084;18.762;2023-12-04T03:02:32;12.73;;;5.70;;
76459;SDS011;65299;46.084;18.762;2023-12-04T03:05:33;12.53;;;5.40;;
76459;SDS011;65299;46.084;18.762;2023-12-04T03:08:33;14.18;;;5.70;;
76459;SDS011;65299;46.084;18.762;2023-12-04T03:11:34;11.50;;;4.40;;
76459;SDS011;65299;46.084;18.762;2023-12-04T03:14:34;10.43;;;4.03;;
76459;SDS011;65299;46.084;18.762;2023-12-04T03:17:34;10.90;;;4.70;;
76459;SDS011;65299;46.084;18.762;2023-12-04T03:20:35;12.10;;;5.20;;
76459;SDS011;65299;46.084;18.762;2023-12-04T03:23:35;18.45;;;6.50;;
76459;SDS011;65299;46.084;18.762;2023-12-04T03:26:36;14.43;;;5.80;;
76459;SDS011;65299;46.084;18.762;2023-12-04T03:29:36;13.80;;;6.23;;
76459;SDS011;65299;46.084;18.762;2023-12-04T03:32:36;14.13;;;5.77;;
76459;SDS011;65299;46.084;18.762;2023-12-04T03:35:37;18.00;;;6.25;;
76459;SDS011;65299;46.084;18.762;2023-12-04T03:38:37;16.33;;;6.50;;
76459;SDS011;65299;46.084;18.762;2023-12-04T03:41:38;15.00;;;6.33;;
76459;SDS011;65299;46.084;18.762;2023-12-04T03:44:38;19.63;;;7.10;;
76459;SDS011;65299;46.084;18.762;2023-12-04T03:47:38;29.00;;;11.47;;
76459;SDS011;65299;46.084;18.762;2023-12-04T03:50:39;41.55;;;14.60;;
76459;SDS011;65299;46.084;18.762;2023-12-04T03:53:39;38.13;;;13.53;;
76459;SDS011;65299;46.084;18.762;2023-12-04T03:56:40;30.00;;;12.77;;
76459;SDS011;65299;46.084;18.762;2023-12-04T03:59:40;27.73;;;12.48;;
76459;SDS011;65299;46.084;18.762;2023-12-04T04:02:42;28.43;;;11.57;;
76459;SDS011;65299;46.084;18.762;2023-12-04T04:05:43;25.52;;;9.85;;
76459;SDS011;65299;46.084;18.762;2023-12-04T04:08:43;23.83;;;10.50;;
76459;SDS011;65299;46.084;18.762;2023-12-04T04:11:44;29.87;;;11.03;;
76459;SDS011;65299;46.084;18.762;2023-12-04T04:14:44;51.83;;;17.83;;
76459;SDS011;65299;46.084;18.762;2023-12-04T04:17:45;46.27;;;16.10;;
76459;SDS011;65299;46.084;18.762;2023-12-04T04:20:45;39.43;;;14.63;;
76459;SDS011;65299;46.084;18.762;2023-12-04T04:23:45;31.47;;;12.90;;
76459;SDS011;65299;46.084;18.762;2023-12-04T04:26:46;32.73;;;12.47;;
76459;SDS011;65299;46.084;18.762;2023-12-04T04:29:47;32.93;;;11.47;;
76459;SDS011;65299;46.084;18.762;2023-12-04T04:32:47;29.02;;;10.88;;
76459;SDS011;65299;46.084;18.762;2023-12-04T04:35:47;29.90;;;10.00;;
76459;SDS011;65299;46.084;18.762;2023-12-04T04:38:48;28.77;;;10.30;;
76459;SDS011;65299;46.084;18.762;2023-12-04T04:41:48;25.48;;;8.88;;
76459;SDS011;65299;46.084;18.762;2023-12-04T04:44:48;24.87;;;10.67;;
76459;SDS011;65299;46.084;18.762;2023-12-04T04:47:49;27.33;;;9.03;;
76459;SDS011;65299;46.084;18.762;2023-12-04T04:50:49;21.47;;;8.47;;
76459;SDS011;65299;46.084;18.762;2023-12-04T04:53:50;31.50;;;9.98;;
76459;SDS011;65299;46.084;18.762;2023-12-04T04:56:50;21.03;;;8.60;;
76459;SDS011;65299;46.084;18.762;2023-12-04T04:59:51;34.80;;;12.47;;
76459;SDS011;65299;46.084;18.762;2023-12-04T05:02:51;34.27;;;12.27;;
76459;SDS011;65299;46.084;18.762;2023-12-04T05:05:52;28.77;;;13.73;;
76459;SDS011;65299;46.084;18.762;2023-12-04T05:08:52;37.40;;;14.60;;
76459;SDS011;65299;46.084;18.762;2023-12-04T05:11:52;33.33;;;12.30;;
76459;SDS011;65299;46.084;18.762;2023-12-04T05:14:53;34.80;;;14.40;;
76459;SDS011;65299;46.084;18.762;2023-12-04T05:17:53;32.33;;;13.82;;
76459;SDS011;65299;46.084;18.762;2023-12-04T05:20:54;40.43;;;15.77;;
76459;SDS011;65299;46.084;18.762;2023-12-04T05:23:54;48.73;;;22.80;;
76459;SDS011;65299;46.084;18.762;2023-12-04T05:26:54;44.70;;;19.57;;
76459;SDS011;65299;46.084;18.762;2023-12-04T05:29:55;30.92;;;13.18;;
76459;SDS011;65299;46.084;18.762;2023-12-04T05:32:55;32.87;;;12.47;;
76459;SDS011;65299;46.084;18.762;2023-12-04T05:35:56;27.30;;;11.50;;
76459;SDS011;65299;46.084;18.762;2023-12-04T05:38:56;34.23;;;13.60;;
76459;SDS011;65299;46.084;18.762;2023-12-04T05:41:57;37.27;;;14.07;;
76459;SDS011;65299;46.084;18.762;2023-12-04T05:44:57;50.70;;;18.50;;
76459;SDS011;65299;46.084;18.762;2023-12-04T05:47:58;75.73;;;20.47;;
76459;SDS011;65299;46.084;18.762;2023-12-04T05:50:58;70.13;;;20.98;;
76459;SDS011;65299;46.084;18.762;2023-12-04T05:53:58;41.00;;;16.57;;
76459;SDS011;65299;46.084;18.762;2023-12-04T05:56:59;47.40;;;16.23;;
76459;SDS011;65299;46.084;18.762;2023-12-04T05:59:59;42.37;;;14.20;;
76459;SDS011;65299;46.084;18.762;2023-12-04T06:03:00;42.87;;;15.00;;
76459;SDS011;65299;46.084;18.762;2023-12-04T06:06:00;46.92;;;17.05;;
76459;SDS011;65299;46.084;18.762;2023-12-04T06:09:00;59.10;;;21.43;;
76459;SDS011;65299;46.084;18.762;2023-12-04T06:12:01;48.57;;;18.67;;
76459;SDS011;65299;46.084;18.762;2023-12-04T06:15:07;81.22;;;24.67;;
76459;SDS011;65299;46.084;18.762;2023-12-04T06:18:08;146.43;;;45.15;;
76459;SDS011;65299;46.084;18.762;2023-12-04T06:21:09;117.07;;;37.17;;
76459;SDS011;65299;46.084;18.762;2023-12-04T06:24:09;119.23;;;31.23;;
76459;SDS011;65299;46.084;18.762;2023-12-04T06:27:11;60.03;;;21.15;;
76459;SDS011;65299;46.084;18.762;2023-12-04T06:30:15;39.92;;;15.57;;
76459;SDS011;65299;46.084;18.762;2023-12-04T06:33:16;44.70;;;17.30;;
76459;SDS011;65299;46.084;18.762;2023-12-04T06:36:18;41.72;;;17.08;;
76459;SDS011;65299;46.084;18.762;2023-12-04T06:39:19;55.65;;;19.52;;
76459;SDS011;65299;46.084;18.762;2023-12-04T06:42:19;50.43;;;21.13;;
76459;SDS011;65299;46.084;18.762;2023-12-04T06:45:20;56.17;;;23.30;;
76459;SDS011;65299;46.084;18.762;2023-12-04T06:48:21;52.70;;;21.77;;
76459;SDS011;65299;46.084;18.762;2023-12-04T06:51:22;57.20;;;23.63;;
76459;SDS011;65299;46.084;18.762;2023-12-04T06:54:22;87.03;;;38.53;;
76459;SDS011;65299;46.084;18.762;2023-12-04T06:57:22;78.43;;;32.63;;
76459;SDS011;65299;46.084;18.762;2023-12-04T07:00:23;75.43;;;35.95;;
76459;SDS011;65299;46.084;18.762;2023-12-04T07:03:23;85.67;;;40.37;;
76459;SDS011;65299;46.084;18.762;2023-12-04T07:06:24;80.55;;;35.13;;
76459;SDS011;65299;46.084;18.762;2023-12-04T07:09:25;87.10;;;38.70;;
76459;SDS011;65299;46.084;18.762;2023-12-04T07:12:25;84.77;;;35.23;;
76459;SDS011;65299;46.084;18.762;2023-12-04T07:15:26;80.73;;;30.63;;
76459;SDS011;65299;46.084;18.762;2023-12-04T07:18:27;70.75;;;26.95;;
76459;SDS011;65299;46.084;18.762;2023-12-04T07:21:28;74.63;;;28.48;;
76459;SDS011;65299;46.084;18.762;2023-12-04T07:24:29;87.80;;;30.05;;
76459;SDS011;65299;46.084;18.762;2023-12-04T07:27:30;68.65;;;26.77;;
76459;SDS011;65299;46.084;18.762;2023-12-04T07:30:31;73.60;;;26.93;;
76459;SDS011;65299;46.084;18.762;2023-12-04T07:33:31;66.33;;;27.53;;
76459;SDS011;65299;46.084;18.762;2023-12-04T07:36:32;82.70;;;31.50;;
76459;SDS011;65299;46.084;18.762;2023-12-04T07:39:32;82.57;;;31.93;;
76459;SDS011;65299;46.084;18.762;2023-12-04T07:42:32;156.93;;;58.10;;
76459;SDS011;65299;46.084;18.762;2023-12-04T07:45:33;94.07;;;37.60;;
76459;SDS011;65299;46.084;18.762;2023-12-04T07:48:34;115.43;;;45.55;;
76459;SDS011;65299;46.084;18.762;2023-12-04T07:51:35;53.33;;;21.73;;
76459;SDS011;65299;46.084;18.762;2023-12-04T07:54:35;29.97;;;12.67;;
76459;SDS011;65299;46.084;18.762;2023-12-04T07:57:35;18.77;;;8.32;;
76459;SDS011;65299;46.084;18.762;2023-12-04T08:00:36;15.13;;;6.33;;
76459;SDS011;65299;46.084;18.762;2023-12-04T08:03:36;14.93;;;6.37;;
76459;SDS011;65299;46.084;18.762;2023-12-04T08:06:37;14.67;;;6.80;;
76459;SDS011;65299;46.084;18.762;2023-12-04T08:09:37;15.43;;;6.40;;
76459;SDS011;65299;46.084;18.762;2023-12-04T08:12:37;19.65;;;7.68;;
76459;SDS011;65299;46.084;18.762;2023-12-04T08:15:38;14.43;;;6.90;;
76459;SDS011;65299;46.084;18.762;2023-12-04T08:18:39;19.00;;;7.47;;
76459;SDS011;65299;46.084;18.762;2023-12-04T08:21:39;18.30;;;7.93;;
76459;SDS011;65299;46.084;18.762;2023-12-04T08:24:40;17.77;;;6.57;;
76459;SDS011;65299;46.084;18.762;2023-12-04T08:27:40;20.27;;;6.57;;
76459;SDS011;65299;46.084;18.762;2023-12-04T08:30:41;16.27;;;7.10;;
76459;SDS011;65299;46.084;18.762;2023-12-04T08:33:41;15.27;;;6.87;;
76459;SDS011;65299;46.084;18.762;2023-12-04T08:36:42;13.38;;;6.32;;
76459;SDS011;65299;46.084;18.762;2023-12-04T08:39:42;10.03;;;3.53;;
76459;SDS011;65299;46.084;18.762;2023-12-04T08:42:43;13.43;;;5.10;;
76459;SDS011;65299;46.084;18.762;2023-12-04T08:45:45;12.18;;;4.55;;
76459;SDS011;65299;46.084;18.762;2023-12-04T08:48:45;13.05;;;4.75;;
76459;SDS011;65299;46.084;18.762;2023-12-04T08:51:46;7.27;;;3.37;;
76459;SDS011;65299;46.084;18.762;2023-12-04T08:54:46;5.57;;;2.67;;
76459;SDS011;65299;46.084;18.762;2023-12-04T08:57:47;9.60;;;4.10;;
76459;SDS011;65299;46.084;18.762;2023-12-04T09:00:47;13.70;;;4.97;;
76459;SDS011;65299;46.084;18.762;2023-12-04T09:03:47;9.37;;;4.10;;
76459;SDS011;65299;46.084;18.762;2023-12-04T09:06:48;6.43;;;2.23;;
76459;SDS011;65299;46.084;18.762;2023-12-04T09:09:48;11.00;;;5.10;;
76459;SDS011;65299;46.084;18.762;2023-12-04T09:12:49;8.65;;;2.88;;
76459;SDS011;65299;46.084;18.762;2023-12-04T09:15:49;8.70;;;3.50;;
76459;SDS011;65299;46.084;18.762;2023-12-04T09:18:50;10.00;;;4.30;;
76459;SDS011;65299;46.084;18.762;2023-12-04T09:21:50;9.65;;;4.60;;
76459;SDS011;65299;46.084;18.762;2023-12-04T09:24:51;11.03;;;4.40;;
76459;SDS011;65299;46.084;18.762;2023-12-04T09:27:51;10.17;;;4.57;;
76459;SDS011;65299;46.084;18.762;2023-12-04T09:30:52;11.98;;;6.30;;
76459;SDS011;65299;46.084;18.762;2023-12-04T09:33:53;4.77;;;2.23;;
76459;SDS011;65299;46.084;18.762;2023-12-04T09:36:53;7.45;;;3.28;;
76459;SDS011;65299;46.084;18.762;2023-12-04T09:39:54;8.90;;;3.10;;
76459;SDS011;65299;46.084;18.762;2023-12-04T09:42:54;8.57;;;3.70;;
76459;SDS011;65299;46.084;18.762;2023-12-04T09:45:55;9.52;;;4.10;;
76459;SDS011;65299;46.084;18.762;2023-12-04T09:48:55;9.07;;;3.83;;
76459;SDS011;65299;46.084;18.762;2023-12-04T09:52:00;7.70;;;3.65;;
76459;SDS011;65299;46.084;18.762;2023-12-04T09:55:01;10.48;;;4.63;;
76459;SDS011;65299;46.084;18.762;2023-12-04T09:58:01;9.97;;;4.97;;
76459;SDS011;65299;46.084;18.762;2023-12-04T10:01:03;7.93;;;3.78;;
76459;SDS011;65299;46.084;18.762;2023-12-04T10:04:04;7.05;;;2.60;;
76459;SDS011;65299;46.084;18.762;2023-12-04T10:07:07;4.30;;;2.03;;
76459;SDS011;65299;46.084;18.762;2023-12-04T10:10:08;7.13;;;2.63;;
76459;SDS011;65299;46.084;18.762;2023-12-04T10:13:08;10.13;;;4.43;;
76459;SDS011;65299;46.084;18.762;2023-12-04T10:16:09;13.67;;;5.27;;
76459;SDS011;65299;46.084;18.762;2023-12-04T10:22:21;11.07;;;4.77;;
76459;SDS011;65299;46.084;18.762;2023-12-04T10:25:23;13.55;;;4.55;;
76459;SDS011;65299;46.084;18.762;2023-12-04T10:28:25;5.53;;;2.50;;
76459;SDS011;65299;46.084;18.762;2023-12-04T10:31:26;14.48;;;5.03;;
76459;SDS011;65299;46.084;18.762;2023-12-04T10:34:31;5.57;;;2.38;;
76459;SDS011;65299;46.084;18.762;2023-12-04T10:37:35;11.87;;;5.00;;
76459;SDS011;65299;46.084;18.762;2023-12-04T10:40:37;9.85;;;4.22;;
76459;SDS011;65299;46.084;18.762;2023-12-04T10:43:37;3.92;;;1.75;;
76459;SDS011;65299;46.084;18.762;2023-12-04T10:46:46;8.50;;;4.13;;
76459;SDS011;65299;46.084;18.762;2023-12-04T10:49:48;9.90;;;3.90;;
76459;SDS011;65299;46.084;18.762;2023-12-04T10:52:49;7.95;;;3.17;;
76459;SDS011;65299;46.084;18.762;2023-12-04T10:55:53;10.85;;;5.30;;
76459;SDS011;65299;46.084;18.762;2023-12-04T10:58:58;10.15;;;4.10;;
76459;SDS011;65299;46.084;18.762;2023-12-04T11:02:01;5.35;;;2.38;;
76459;SDS011;65299;46.084;18.762;2023-12-04T11:05:08;6.33;;;3.30;;
76459;SDS011;65299;46.084;18.762;2023-12-04T11:08:16;4.05;;;2.30;;
76459;SDS011;65299;46.084;18.762;2023-12-04T11:11:22;2.90;;;1.05;;
76459;SDS011;65299;46.084;18.762;2023-12-04T11:14:33;6.18;;;2.40;;
76459;SDS011;65299;46.084;18.762;2023-12-04T11:17:39;8.02;;;2.70;;
76459;SDS011;65299;46.084;18.762;2023-12-04T11:20:46;6.50;;;3.00;;
76459;SDS011;65299;46.084;18.762;2023-12-04T11:23:52;8.75;;;3.15;;
76459;SDS011;65299;46.084;18.762;2023-12-04T11:26:53;6.45;;;2.97;;
76459;SDS011;65299;46.084;18.762;2023-12-04T11:29:54;7.03;;;3.30;;
76459;SDS011;65299;46.084;18.762;2023-12-04T11:32:55;6.05;;;3.03;;
76459;SDS011;65299;46.084;18.762;2023-12-04T11:36:09;3.50;;;1.85;;
76459;SDS011;65299;46.084;18.762;2023-12-04T11:39:11;6.10;;;2.80;;
76459;SDS011;65299;46.084;18.762;2023-12-04T11:42:11;7.30;;;3.20;;
76459;SDS011;65299;46.084;18.762;2023-12-04T11:45:19;5.75;;;3.03;;
76459;SDS011;65299;46.084;18.762;2023-12-04T11:48:23;5.30;;;2.60;;
76459;SDS011;65299;46.084;18.762;2023-12-04T11:54:59;10.30;;;3.83;;
76459;SDS011;65299;46.084;18.762;2023-12-04T11:58:04;4.88;;;2.58;;
76459;SDS011;65299;46.084;18.762;2023-12-04T12:01:09;7.32;;;2.92;;
76459;SDS011;65299;46.084;18.762;2023-12-04T12:04:09;7.17;;;3.50;;
76459;SDS011;65299;46.084;18.762;2023-12-04T12:07:10;8.97;;;4.03;;
76459;SDS011;65299;46.084;18.762;2023-12-04T12:10:11;9.57;;;4.50;;
76459;SDS011;65299;46.084;18.762;2023-12-04T12:13:13;8.88;;;4.63;;
76459;SDS011;65299;46.084;18.762;2023-12-04T12:16:13;9.70;;;4.13;;
76459;SDS011;65299;46.084;18.762;2023-12-04T12:19:14;7.87;;;3.73;;
76459;SDS011;65299;46.084;18.762;2023-12-04T12:22:15;7.07;;;3.05;;
76459;SDS011;65299;46.084;18.762;2023-12-04T12:25:16;9.90;;;5.00;;
76459;SDS011;65299;46.084;18.762;2023-12-04T12:28:18;7.85;;;3.35;;
76459;SDS011;65299;46.084;18.762;2023-12-04T12:31:18;11.37;;;4.83;;
76459;SDS011;65299;46.084;18.762;2023-12-04T12:34:19;7.55;;;3.97;;
76459;SDS011;65299;46.084;18.762;2023-12-04T12:37:20;7.87;;;4.00;;
76459;SDS011;65299;46.084;18.762;2023-12-04T12:40:21;9.95;;;4.20;;
76459;SDS011;65299;46.084;18.762;2023-12-04T12:43:21;10.80;;;4.83;;
76459;SDS011;65299;46.084;18.762;2023-12-04T12:46:23;10.20;;;4.32;;
76459;SDS011;65299;46.084;18.762;2023-12-04T12:49:23;11.37;;;5.00;;
76459;SDS011;65299;46.084;18.762;2023-12-04T12:52:24;8.73;;;4.17;;
76459;SDS011;65299;46.084;18.762;2023-12-04T12:55:27;11.70;;;4.72;;
76459;SDS011;65299;46.084;18.762;2023-12-04T12:58:27;12.35;;;5.68;;
76459;SDS011;65299;46.084;18.762;2023-12-04T13:01:31;23.87;;;8.43;;
76459;SDS011;65299;46.084;18.762;2023-12-04T13:04:36;14.93;;;6.43;;
76459;SDS011;65299;46.084;18.762;2023-12-04T13:07:37;11.63;;;5.10;;
76459;SDS011;65299;46.084;18.762;2023-12-04T13:10:38;10.73;;;4.47;;
76459;SDS011;65299;46.084;18.762;2023-12-04T13:13:39;15.43;;;6.13;;
76459;SDS011;65299;46.084;18.762;2023-12-04T13:16:40;10.73;;;4.73;;
76459;SDS011;65299;46.084;18.762;2023-12-04T13:19:40;12.10;;;4.70;;
76459;SDS011;65299;46.084;18.762;2023-12-04T13:22:41;10.07;;;4.87;;
76459;SDS011;65299;46.084;18.762;2023-12-04T13:25:41;12.47;;;5.57;;
76459;SDS011;65299;46.084;18.762;2023-12-04T13:28:41;14.73;;;5.77;;
76459;SDS011;65299;46.084;18.762;2023-12-04T13:31:42;13.53;;;6.73;;
76459;SDS011;65299;46.084;18.762;2023-12-04T13:34:42;14.75;;;7.05;;
76459;SDS011;65299;46.084;18.762;2023-12-04T13:37:43;14.13;;;6.17;;
76459;SDS011;65299;46.084;18.762;2023-12-04T13:40:43;13.93;;;6.10;;
76459;SDS011;65299;46.084;18.762;2023-12-04T13:43:59;15.33;;;7.20;;
76459;SDS011;65299;46.084;18.762;2023-12-04T13:47:00;13.75;;;6.30;;
76459;SDS011;65299;46.084;18.762;2023-12-04T13:50:00;17.90;;;6.53;;
76459;SDS011;65299;46.084;18.762;2023-12-04T13:53:01;13.93;;;5.80;;
76459;SDS011;65299;46.084;18.762;2023-12-04T13:56:02;12.73;;;5.55;;
76459;SDS011;65299;46.084;18.762;2023-12-04T13:59:03;10.13;;;5.20;;
76459;SDS011;65299;46.084;18.762;2023-12-04T14:02:05;10.25;;;4.43;;
76459;SDS011;65299;46.084;18.762;2023-12-04T14:05:10;12.35;;;5.70;;
76459;SDS011;65299;46.084;18.762;2023-12-04T14:08:15;9.13;;;4.78;;
76459;SDS011;65299;46.084;18.762;2023-12-04T14:11:16;13.13;;;5.03;;
76459;SDS011;65299;46.084;18.762;2023-12-04T14:14:17;9.52;;;4.80;;
76459;SDS011;65299;46.084;18.762;2023-12-04T14:17:18;13.17;;;4.37;;
76459;SDS011;65299;46.084;18.762;2023-12-04T14:20:18;10.20;;;4.10;;
76459;SDS011;65299;46.084;18.762;2023-12-04T14:23:21;12.25;;;4.78;;
76459;SDS011;65299;46.084;18.762;2023-12-04T14:26:21;10.83;;;4.77;;
76459;SDS011;65299;46.084;18.762;2023-12-04T14:29:22;11.57;;;4.45;;
76459;SDS011;65299;46.084;18.762;2023-12-04T14:32:22;10.43;;;4.57;;
76459;SDS011;65299;46.084;18.762;2023-12-04T14:35:23;12.33;;;5.23;;
76459;SDS011;65299;46.084;18.762;2023-12-04T14:38:23;12.80;;;4.70;;
76459;SDS011;65299;46.084;18.762;2023-12-04T14:41:24;7.95;;;3.50;;
76459;SDS011;65299;46.084;18.762;2023-12-04T14:44:25;11.07;;;4.50;;
76459;SDS011;65299;46.084;18.762;2023-12-04T14:47:25;12.80;;;4.97;;
76459;SDS011;65299;46.084;18.762;2023-12-04T14:50:26;12.57;;;5.03;;
76459;SDS011;65299;46.084;18.762;2023-12-04T14:53:26;14.80;;;6.60;;
76459;SDS011;65299;46.084;18.762;2023-12-04T14:56:35;15.23;;;6.18;;
76459;SDS011;65299;46.084;18.762;2023-12-04T14:59:36;14.80;;;6.05;;
76459;SDS011;65299;46.084;18.762;2023-12-04T15:02:55;18.10;;;6.88;;
76459;SDS011;65299;46.084;18.762;2023-12-04T15:06:14;14.37;;;6.50;;
76459;SDS011;65299;46.084;18.762;2023-12-04T15:09:32;18.55;;;7.90;;
76459;SDS011;65299;46.084;18.762;2023-12-04T15:12:39;13.13;;;6.07;;
76459;SDS011;65299;46.084;18.762;2023-12-04T15:15:59;13.18;;;6.18;;
76459;SDS011;65299;46.084;18.762;2023-12-04T15:19:16;13.45;;;5.63;;
76459;SDS011;65299;46.084;18.762;2023-12-04T15:22:33;11.83;;;5.53;;
76459;SDS011;65299;46.084;18.762;2023-12-04T15:25:34;10.25;;;4.95;;
76459;SDS011;65299;46.084;18.762;2023-12-04T15:28:34;13.90;;;5.50;;
76459;SDS011;65299;46.084;18.762;2023-12-04T15:31:34;12.20;;;5.20;;
76459;SDS011;65299;46.084;18.762;2023-12-04T15:34:35;12.77;;;4.95;;
76459;SDS011;65299;46.084;18.762;2023-12-04T15:37:35;9.57;;;5.07;;
76459;SDS011;65299;46.084;18.762;2023-12-04T15:40:36;15.60;;;6.40;;
76459;SDS011;65299;46.084;18.762;2023-12-04T15:43:37;12.37;;;5.33;;
76459;SDS011;65299;46.084;18.762;2023-12-04T15:46:37;13.00;;;5.57;;
76459;SDS011;65299;46.084;18.762;2023-12-04T15:49:37;12.90;;;5.37;;
76459;SDS011;65299;46.084;18.762;2023-12-04T15:52:38;11.43;;;5.33;;
76459;SDS011;65299;46.084;18.762;2023-12-04T15:55:40;14.13;;;6.28;;
76459;SDS011;65299;46.084;18.762;2023-12-04T15:58:41;14.70;;;6.53;;
76459;SDS011;65299;46.084;18.762;2023-12-04T16:01:41;17.50;;;6.80;;
76459;SDS011;65299;46.084;18.762;2023-12-04T16:04:42;13.63;;;5.43;;
76459;SDS011;65299;46.084;18.762;2023-12-04T16:07:42;12.73;;;5.83;;
76459;SDS011;65299;46.084;18.762;2023-12-04T16:10:43;18.23;;;6.97;;
76459;SDS011;65299;46.084;18.762;2023-12-04T16:13:43;16.13;;;6.83;;
76459;SDS011;65299;46.084;18.762;2023-12-04T16:16:43;19.90;;;6.93;;
76459;SDS011;65299;46.084;18.762;2023-12-04T16:19:44;16.60;;;6.20;;
76459;SDS011;65299;46.084;18.762;2023-12-04T16:22:45;19.75;;;6.88;;
76459;SDS011;65299;46.084;18.762;2023-12-04T16:25:45;15.40;;;6.90;;
76459;SDS011;65299;46.084;18.762;2023-12-04T16:28:45;16.93;;;6.63;;
76459;SDS011;65299;46.084;18.762;2023-12-04T16:31:46;14.68;;;6.75;;
76459;SDS011;65299;46.084;18.762;2023-12-04T16:34:47;17.90;;;7.55;;
76459;SDS011;65299;46.084;18.762;2023-12-04T16:37:47;17.70;;;6.93;;
76459;SDS011;65299;46.084;18.762;2023-12-04T16:40:48;17.63;;;7.13;;
76459;SDS011;65299;46.084;18.762;2023-12-04T16:43:48;15.93;;;6.83;;
76459;SDS011;65299;46.084;18.762;2023-12-04T16:46:49;19.10;;;8.05;;
76459;SDS011;65299;46.084;18.762;2023-12-04T16:49:55;17.97;;;7.00;;
76459;SDS011;65299;46.084;18.762;2023-12-04T16:52:55;16.85;;;7.25;;
76459;SDS011;65299;46.084;18.762;2023-12-04T16:55:56;19.67;;;8.20;;
76459;SDS011;65299;46.084;18.762;2023-12-04T16:58:56;23.10;;;9.23;;
76459;SDS011;65299;46.084;18.762;2023-12-04T17:01:57;19.55;;;8.32;;
76459;SDS011;65299;46.084;18.762;2023-12-04T17:04:58;15.23;;;6.47;;
76459;SDS011;65299;46.084;18.762;2023-12-04T17:07:59;20.52;;;8.82;;
76459;SDS011;65299;46.084;18.762;2023-12-04T17:10:59;16.70;;;7.50;;
76459;SDS011;65299;46.084;18.762;2023-12-04T17:14:00;20.80;;;8.87;;
76459;SDS011;65299;46.084;18.762;2023-12-04T17:17:00;21.87;;;8.83;;
76459;SDS011;65299;46.084;18.762;2023-12-04T17:20:00;19.83;;;8.38;;
76459;SDS011;65299;46.084;18.762;2023-12-04T17:23:07;23.57;;;9.87;;
76459;SDS011;65299;46.084;18.762;2023-12-04T17:26:07;25.00;;;9.20;;
76459;SDS011;65299;46.084;18.762;2023-12-04T17:29:08;21.80;;;9.50;;
76459;SDS011;65299;46.084;18.762;2023-12-04T17:32:08;21.97;;;9.50;;
76459;SDS011;65299;46.084;18.762;2023-12-04T17:35:10;21.92;;;8.88;;
76459;SDS011;65299;46.084;18.762;2023-12-04T17:38:11;23.23;;;9.75;;
76459;SDS011;65299;46.084;18.762;2023-12-04T17:41:11;24.80;;;9.73;;
76459;SDS011;65299;46.084;18.762;2023-12-04T17:44:11;25.70;;;11.10;;
76459;SDS011;65299;46.084;18.762;2023-12-04T17:47:12;22.35;;;9.57;;